Time;durP1;ratioP1;P1;durP2;ratioP2;P2;SDS_P1;SDS_P2;PMS_P1;PMS_P2;Temp;Humidity;BMP_temperature;BMP_pressure;BME280_temperature;BME280_humidity;BME280_pressure;Samples;Min_cycle;Max_cycle;Signal;HPM_P1;HPM_P2
2023/01/31 00:01:22;;;;;;;15.77;2.00;;;3.80;99.90;;;;;;5024806;28;20044;-88
2023/01/31 00:03:52;;;;;;;13.60;1.77;;;3.80;99.90;;;;;;5057209;28;20048;-88
2023/01/31 00:06:29;;;;;;;22.67;2.80;;;3.80;99.90;;;;;;5058398;28;20123;-88
2023/01/31 00:08:55;;;;;;;;;;;3.80;99.90;;;;;;5057767;28;20158;-88
2023/01/31 00:11:24;;;;;;;11.68;1.92;;;3.80;99.90;;;;;;5091428;28;20383;-88
2023/01/31 00:13:50;;;;;;;14.27;2.35;;;3.80;99.90;;;;;;5058115;28;20043;-88
2023/01/31 00:16:17;;;;;;;12.75;1.90;;;4.50;99.90;;;;;;5074365;28;20129;-88
2023/01/31 00:18:43;;;;;;;21.38;3.25;;;4.80;99.90;;;;;;5039405;28;20552;-88
2023/01/31 00:21:12;;;;;;;17.05;2.90;;;5.00;99.90;;;;;;5040643;28;20056;-89
2023/01/31 00:23:39;;;;;;;20.88;3.33;;;5.30;99.90;;;;;;5073909;28;20753;-88
2023/01/31 00:26:15;;;;;;;21.52;3.25;;;3.80;99.90;;;;;;5063813;28;20093;-88
2023/01/31 00:28:43;;;;;;;17.23;2.10;;;3.80;99.90;;;;;;5057346;28;20044;-88
2023/01/31 00:31:09;;;;;;;15.27;2.33;;;4.90;99.90;;;;;;5087946;28;20036;-88
2023/01/31 00:33:36;;;;;;;19.98;1.95;;;3.70;99.90;;;;;;5040683;28;20123;-88
2023/01/31 00:36:07;;;;;;;19.52;3.00;;;3.80;99.90;;;;;;5056687;28;20041;-87
2023/01/31 00:38:33;;;;;;;16.08;2.08;;;3.70;99.90;;;;;;5074073;28;20036;-87
2023/01/31 00:40:59;;;;;;;10.52;2.05;;;3.60;99.90;;;;;;5038575;28;20045;-88
2023/01/31 00:43:25;;;;;;;12.25;1.90;;;3.60;99.90;;;;;;5040426;28;20063;-88
2023/01/31 00:45:51;;;;;;;14.02;2.40;;;4.10;99.90;;;;;;5073571;28;20480;-88
2023/01/31 00:48:16;;;;;;;15.50;2.25;;;3.50;99.90;;;;;;5040278;28;20040;-88
2023/01/31 00:50:42;;;;;;;19.23;2.08;;;3.60;99.90;;;;;;5056831;28;20047;-88
2023/01/31 00:53:08;;;;;;;12.90;1.75;;;4.80;99.90;;;;;;5056275;28;20041;-88
2023/01/31 00:55:34;;;;;;;16.70;2.00;;;3.50;99.90;;;;;;5055757;28;20047;-88
2023/01/31 00:58:00;;;;;;;17.20;2.38;;;3.40;99.90;;;;;;5056643;28;20500;-87
2023/01/31 01:00:25;;;;;;;15.97;2.00;;;3.40;99.90;;;;;;5056525;28;20036;-88
2023/01/31 01:02:51;;;;;;;12.20;1.88;;;3.00;99.90;;;;;;5040173;28;20123;-88
2023/01/31 01:05:17;;;;;;;16.17;2.28;;;3.30;99.90;;;;;;5057375;28;20048;-87
2023/01/31 01:07:42;;;;;;;20.20;3.05;;;3.50;99.90;;;;;;5057073;28;20040;-88
2023/01/31 01:10:09;;;;;;;12.93;2.17;;;4.30;99.90;;;;;;5058061;28;20043;-88
2023/01/31 01:12:34;;;;;;;;;;;3.20;99.90;;;;;;5058346;28;20032;-87
2023/01/31 01:15:00;;;;;;;22.70;3.03;;;3.20;99.90;;;;;;5057693;28;19920;-86
2023/01/31 01:17:26;;;;;;;15.07;2.07;;;4.90;99.90;;;;;;5040863;28;20040;-87
2023/01/31 01:19:52;;;;;;;13.75;3.08;;;3.20;99.90;;;;;;5040345;28;20297;-87
2023/01/31 01:22:17;;;;;;;17.23;2.67;;;3.70;99.90;;;;;;5057000;28;20043;-87
2023/01/31 01:24:44;;;;;;;13.60;2.17;;;4.30;99.90;;;;;;5040947;28;20274;-87
2023/01/31 01:27:09;;;;;;;;;;;3.20;99.90;;;;;;5040733;28;20462;-88
2023/01/31 01:29:36;;;;;;;15.13;1.92;;;3.20;99.90;;;;;;5040094;28;19920;-88
2023/01/31 01:32:02;;;;;;;9.73;2.22;;;3.20;99.90;;;;;;5040501;28;20115;-87
2023/01/31 01:34:28;;;;;;;13.07;1.70;;;3.20;99.90;;;;;;5057009;28;20044;-88
2023/01/31 01:36:53;;;;;;;12.65;2.15;;;4.10;99.90;;;;;;5073463;28;20408;-87
2023/01/31 01:39:19;;;;;;;12.75;1.73;;;3.10;99.90;;;;;;5040824;28;20119;-88
2023/01/31 01:41:46;;;;;;;12.63;2.25;;;3.10;99.90;;;;;;5040317;28;20060;-88
2023/01/31 01:44:51;;;;;;;15.18;2.13;;;3.10;99.90;;;;;;5056393;28;20079;-87
2023/01/31 01:47:19;;;;;;;15.05;2.25;;;3.10;99.90;;;;;;5074248;28;20116;-88
2023/01/31 01:50:17;;;;;;;12.10;2.08;;;3.10;99.90;;;;;;5074299;28;20036;-88
2023/01/31 01:53:05;;;;;;;16.00;2.22;;;3.10;99.90;;;;;;5057379;28;20043;-88
2023/01/31 01:55:36;;;;;;;17.13;2.22;;;4.00;99.90;;;;;;5056162;28;20037;-87
2023/01/31 01:58:07;;;;;;;11.52;2.00;;;3.60;99.90;;;;;;5055945;28;20050;-87
2023/01/31 02:00:35;;;;;;;16.50;2.00;;;3.30;99.90;;;;;;5056672;28;20389;-87
2023/01/31 02:03:05;;;;;;;21.73;2.15;;;4.30;99.90;;;;;;5055738;28;20078;-87
2023/01/31 02:05:40;;;;;;;18.17;1.85;;;3.40;99.90;;;;;;5056447;28;20112;-87
2023/01/31 02:08:06;;;;;;;14.65;2.63;;;4.20;99.90;;;;;;5054968;28;20040;-88
2023/01/31 02:10:42;;;;;;;13.48;1.77;;;4.40;99.90;;;;;;5038968;28;20044;-87
2023/01/31 02:13:09;;;;;;;14.52;2.40;;;3.50;99.90;;;;;;5055207;28;20037;-87
2023/01/31 02:15:35;;;;;;;13.32;2.00;;;5.20;99.90;;;;;;5039048;28;20447;-87
2023/01/31 02:18:01;;;;;;;15.25;2.22;;;4.80;99.90;;;;;;5038673;28;20111;-88
2023/01/31 02:20:33;;;;;;;15.40;2.25;;;4.60;99.90;;;;;;5037964;28;20037;-87
2023/01/31 02:23:33;;;;;;;8.50;2.05;;;3.60;99.90;;;;;;5054703;28;20032;-88
2023/01/31 02:26:12;;;;;;;18.40;2.10;;;3.60;99.90;;;;;;5070269;28;20041;-87
2023/01/31 02:28:58;;;;;;;8.57;2.00;;;3.60;99.90;;;;;;5051365;28;20044;-87
2023/01/31 02:31:39;;;;;;;14.50;2.63;;;3.60;99.90;;;;;;5054508;28;20127;-87
2023/01/31 02:34:05;;;;;;;14.48;2.13;;;3.70;99.90;;;;;;5054136;28;20040;-87
2023/01/31 02:36:53;;;;;;;14.63;2.30;;;3.70;99.90;;;;;;5054089;28;20556;-87
2023/01/31 02:39:48;;;;;;;11.75;1.70;;;3.80;99.90;;;;;;5053554;28;20275;-87
2023/01/31 02:42:33;;;;;;;12.88;1.55;;;3.80;99.90;;;;;;5065236;28;20067;-87
2023/01/31 02:45:39;;;;;;;12.90;2.17;;;3.70;99.90;;;;;;5070362;28;20047;-87
2023/01/31 02:48:25;;;;;;;15.15;2.63;;;3.80;99.90;;;;;;5048348;28;20040;-88
2023/01/31 02:51:13;;;;;;;13.38;2.47;;;3.80;99.90;;;;;;5052276;28;20036;-87
2023/01/31 02:54:07;;;;;;;13.55;1.80;;;3.80;99.90;;;;;;5071900;28;20550;-88
2023/01/31 02:56:36;;;;;;;12.65;2.53;;;3.90;99.90;;;;;;5054295;28;20041;-88
2023/01/31 02:59:14;;;;;;;11.02;1.92;;;5.00;99.90;;;;;;5070663;28;20056;-88
2023/01/31 03:01:49;;;;;;;12.32;1.85;;;3.80;99.90;;;;;;5052932;28;20109;-88
2023/01/31 03:04:15;;;;;;;15.52;2.00;;;4.90;99.90;;;;;;5054569;28;20036;-87
2023/01/31 03:06:59;;;;;;;9.13;1.52;;;3.80;99.90;;;;;;5038289;28;20086;-88
2023/01/31 03:09:57;;;;;;;12.85;2.50;;;3.90;99.90;;;;;;5054337;28;20041;-88
2023/01/31 03:12:30;;;;;;;14.20;2.05;;;3.90;99.90;;;;;;5052885;28;20510;-87
2023/01/31 03:15:14;;;;;;;10.40;1.63;;;3.90;99.90;;;;;;5054133;28;20098;-88
2023/01/31 03:17:40;;;;;;;8.48;1.75;;;3.90;99.90;;;;;;5053569;28;20047;-87
2023/01/31 03:20:26;;;;;;;11.53;2.23;;;4.00;99.90;;;;;;5053659;28;21171;-87
2023/01/31 03:23:00;;;;;;;10.80;2.10;;;4.20;99.90;;;;;;5061778;28;20674;-87
2023/01/31 03:25:32;;;;;;;8.55;1.83;;;4.00;99.90;;;;;;5070813;28;20515;-88
2023/01/31 03:28:02;;;;;;;12.23;1.70;;;4.10;99.90;;;;;;5070305;28;20127;-88
2023/01/31 03:30:46;;;;;;;13.30;1.67;;;4.10;99.90;;;;;;5054192;28;20504;-87
2023/01/31 03:33:37;;;;;;;14.45;2.22;;;4.10;99.90;;;;;;5054335;28;20399;-88
2023/01/31 03:36:15;;;;;;;7.32;1.42;;;4.20;99.90;;;;;;5052995;28;20032;-87
2023/01/31 03:39:09;;;;;;;16.83;1.83;;;4.20;99.90;;;;;;5069636;28;20473;-87
2023/01/31 03:42:01;;;;;;;16.48;2.10;;;3.50;99.90;;;;;;5051975;28;20070;-88
2023/01/31 03:44:36;;;;;;;9.55;1.35;;;4.30;99.90;;;;;;5052975;28;20385;-87
2023/01/31 03:47:12;;;;;;;11.85;2.53;;;4.40;99.90;;;;;;5054011;28;20479;-87
2023/01/31 03:49:41;;;;;;;8.27;1.73;;;4.30;99.90;;;;;;5051512;28;20045;-87
2023/01/31 03:52:10;;;;;;;14.45;2.13;;;4.40;99.90;;;;;;5070121;28;20045;-87
2023/01/31 03:54:40;;;;;;;11.43;1.77;;;5.40;99.90;;;;;;5036808;28;20123;-87
2023/01/31 03:57:24;;;;;;;9.80;2.35;;;4.40;99.90;;;;;;5052899;28;20049;-87
2023/01/31 03:59:54;;;;;;;7.20;1.50;;;4.20;99.90;;;;;;5069292;28;20033;-87
2023/01/31 04:02:26;;;;;;;8.88;1.60;;;4.30;99.90;;;;;;5053990;28;20503;-87
2023/01/31 04:05:01;;;;;;;10.57;2.65;;;3.30;99.90;;;;;;5067980;28;20055;-87
2023/01/31 04:07:27;;;;;;;11.70;2.22;;;4.30;99.90;;;;;;5053040;28;20126;-87
2023/01/31 04:09:52;;;;;;;12.55;1.98;;;4.30;99.90;;;;;;5037184;28;20072;-88
2023/01/31 04:12:18;;;;;;;12.73;2.67;;;4.30;99.90;;;;;;5037253;28;20088;-87
2023/01/31 04:14:44;;;;;;;11.45;1.75;;;4.30;99.90;;;;;;5020649;28;20032;-87
2023/01/31 04:17:10;;;;;;;18.37;1.97;;;2.90;99.90;;;;;;5035878;28;20055;-87
2023/01/31 04:19:35;;;;;;;12.98;1.80;;;5.20;99.90;;;;;;5052917;28;20362;-87
2023/01/31 04:22:01;;;;;;;17.07;2.73;;;4.50;99.90;;;;;;5052481;28;20451;-87
2023/01/31 04:24:26;;;;;;;13.40;2.27;;;4.50;99.90;;;;;;5053365;28;20297;-88
2023/01/31 04:26:52;;;;;;;14.53;2.00;;;5.30;99.90;;;;;;5037038;28;20279;-87
2023/01/31 04:29:18;;;;;;;9.45;1.85;;;4.50;99.90;;;;;;5037048;28;20477;-88
2023/01/31 04:31:44;;;;;;;16.67;2.60;;;4.50;99.90;;;;;;5040155;28;20051;-88
2023/01/31 04:34:09;;;;;;;18.67;2.30;;;4.50;99.90;;;;;;5040292;28;20028;-87
2023/01/31 04:36:35;;;;;;;17.13;2.73;;;4.50;99.90;;;;;;5024662;28;20028;-87
2023/01/31 04:39:01;;;;;;;8.57;2.20;;;4.70;99.90;;;;;;5040772;28;20286;-87
2023/01/31 04:41:27;;;;;;;15.23;2.33;;;;;;;;;;5040654;28;20500;-87
2023/01/31 04:43:53;;;;;;;11.63;2.47;;;4.60;99.90;;;;;;5040397;28;20103;-87
2023/01/31 04:46:18;;;;;;;22.35;2.58;;;5.50;99.90;;;;;;5022560;28;20048;-88
2023/01/31 04:48:44;;;;;;;13.23;2.58;;;6.30;99.90;;;;;;5056435;28;20036;-88
2023/01/31 04:51:10;;;;;;;15.30;2.83;;;4.80;99.90;;;;;;5054092;28;20052;-88
2023/01/31 04:53:36;;;;;;;20.47;3.00;;;4.80;99.90;;;;;;5023972;28;20336;-87
2023/01/31 04:56:02;;;;;;;17.88;3.10;;;5.10;99.90;;;;;;5055502;28;20291;-88
2023/01/31 04:58:28;;;;;;;;;;;4.90;99.90;;;;;;5039623;28;20123;-88
2023/01/31 05:00:54;;;;;;;18.88;3.33;;;4.90;99.90;;;;;;5056770;28;20010;-88
2023/01/31 05:03:20;;;;;;;16.50;2.80;;;4.90;99.90;;;;;;5056211;28;20036;-88
2023/01/31 05:05:49;;;;;;;11.43;2.63;;;5.70;99.90;;;;;;5056393;28;20115;-87
2023/01/31 05:08:16;;;;;;;14.15;2.60;;;4.90;99.90;;;;;;5039625;28;20496;-88
2023/01/31 05:10:41;;;;;;;16.50;3.65;;;5.10;99.90;;;;;;5058915;28;20119;-86
2023/01/31 05:13:08;;;;;;;13.73;2.83;;;6.20;99.90;;;;;;5022723;28;20124;-86
2023/01/31 05:15:34;;;;;;;;;;;5.10;99.90;;;;;;5057324;28;20108;-87
2023/01/31 05:18:02;;;;;;;16.23;2.72;;;5.10;99.90;;;;;;5057510;28;19920;-87
2023/01/31 05:20:35;;;;;;;23.27;3.95;;;5.60;99.90;;;;;;5041877;28;20170;-87
2023/01/31 05:23:01;;;;;;;18.33;4.15;;;5.20;99.90;;;;;;5059565;28;20071;-87
2023/01/31 05:25:27;;;;;;;26.30;3.42;;;5.30;99.90;;;;;;5041053;28;20048;-88
2023/01/31 05:27:53;;;;;;;20.33;4.00;;;5.30;99.90;;;;;;5058979;28;20416;-93
2023/01/31 05:30:19;;;;;;;20.13;3.15;;;5.30;99.90;;;;;;5042132;28;20032;-87
2023/01/31 05:32:48;;;;;;;12.00;2.78;;;5.40;99.90;;;;;;5041224;28;20052;-86
2023/01/31 05:35:14;;;;;;;18.98;3.42;;;5.30;99.90;;;;;;5023514;28;20032;-86
2023/01/31 05:37:41;;;;;;;23.52;3.70;;;5.40;99.90;;;;;;5023486;28;20040;-87
2023/01/31 05:40:15;;;;;;;19.95;2.92;;;6.60;99.90;;;;;;5074303;28;20045;-87
2023/01/31 05:42:42;;;;;;;16.80;3.10;;;5.50;99.90;;;;;;5057395;28;20036;-88
2023/01/31 05:45:09;;;;;;;21.20;2.97;;;5.50;99.90;;;;;;5057883;28;20036;-86
2023/01/31 05:47:35;;;;;;;17.35;2.88;;;5.50;99.90;;;;;;5040181;28;20104;-86
2023/01/31 05:50:01;;;;;;;15.57;2.78;;;6.00;99.90;;;;;;5056588;28;20040;-86
2023/01/31 05:52:27;;;;;;;21.75;3.33;;;5.60;99.90;;;;;;5039358;28;20040;-83
2023/01/31 05:54:53;;;;;;;19.88;2.85;;;5.60;99.90;;;;;;5055651;28;20059;-84
2023/01/31 05:57:19;;;;;;;19.77;3.20;;;5.60;99.90;;;;;;5039911;28;20053;-84
2023/01/31 05:59:46;;;;;;;20.73;3.28;;;5.60;99.90;;;;;;5039400;28;20036;-84
2023/01/31 06:02:12;;;;;;;23.05;3.25;;;5.80;99.90;;;;;;5056034;28;20036;-83
2023/01/31 06:04:38;;;;;;;23.50;3.40;;;6.10;99.90;;;;;;5056212;28;20029;-84
2023/01/31 06:07:04;;;;;;;20.92;3.58;;;5.60;99.90;;;;;;5055864;28;20039;-83
2023/01/31 06:09:30;;;;;;;19.63;2.97;;;5.60;99.90;;;;;;5055707;28;20040;-83
2023/01/31 06:11:55;;;;;;;17.90;3.78;;;5.60;99.90;;;;;;5019522;28;20040;-84
2023/01/31 06:14:21;;;;;;;23.42;4.28;;;5.60;99.90;;;;;;5068663;28;20041;-83
2023/01/31 06:16:47;;;;;;;14.18;3.15;;;5.70;99.90;;;;;;5050631;28;20416;-83
2023/01/31 06:19:12;;;;;;;21.45;4.43;;;5.60;99.90;;;;;;5039319;28;20047;-83
2023/01/31 06:21:38;;;;;;;21.80;2.97;;;5.60;99.90;;;;;;5038620;28;20079;-83
2023/01/31 06:24:04;;;;;;;19.95;3.60;;;5.60;99.90;;;;;;5045043;28;20039;-84
2023/01/31 06:26:30;;;;;;;19.13;4.55;;;5.60;99.90;;;;;;5021277;28;20052;-83
2023/01/31 06:28:56;;;;;;;24.60;4.03;;;6.10;99.90;;;;;;5051322;28;20086;-83
2023/01/31 06:31:21;;;;;;;21.27;3.88;;;5.60;99.90;;;;;;5019412;28;20037;-83
2023/01/31 06:33:47;;;;;;;13.20;3.60;;;5.60;99.90;;;;;;5045456;28;20135;-83
2023/01/31 06:36:13;;;;;;;17.60;4.03;;;5.60;99.90;;;;;;5037993;28;20095;-83
2023/01/31 06:38:39;;;;;;;;;;;5.60;99.90;;;;;;5055015;28;20043;-83
2023/01/31 06:41:05;;;;;;;19.60;3.28;;;5.60;99.90;;;;;;5066312;28;20000;-83
2023/01/31 06:43:31;;;;;;;15.98;3.00;;;5.60;99.90;;;;;;5039522;28;20036;-83
2023/01/31 06:45:56;;;;;;;22.23;4.20;;;6.40;99.90;;;;;;5072192;28;20055;-84
2023/01/31 06:48:22;;;;;;;14.97;3.60;;;5.60;99.90;;;;;;5039284;28;20394;-83
2023/01/31 06:50:47;;;;;;;23.80;3.23;;;5.60;99.90;;;;;;5054253;28;20283;-83
2023/01/31 06:53:13;;;;;;;22.20;3.17;;;6.70;99.90;;;;;;5036639;28;20666;-82
2023/01/31 06:55:39;;;;;;;18.03;3.30;;;6.60;99.90;;;;;;5037613;28;20052;-83
2023/01/31 06:58:05;;;;;;;20.58;2.75;;;5.70;99.90;;;;;;5068119;28;20404;-83
2023/01/31 07:00:30;;;;;;;13.75;3.03;;;6.10;99.90;;;;;;5055380;28;20063;-84
2023/01/31 07:02:56;;;;;;;18.08;3.22;;;5.60;99.90;;;;;;5071791;28;20433;-83
2023/01/31 07:05:22;;;;;;;11.87;3.17;;;5.60;99.90;;;;;;5071906;28;20055;-84
2023/01/31 07:07:48;;;;;;;18.52;3.03;;;5.60;99.90;;;;;;5037828;28;21853;-84
2023/01/31 07:10:15;;;;;;;22.13;2.63;;;5.60;99.90;;;;;;5055270;28;20444;-83
2023/01/31 07:12:41;;;;;;;13.73;2.88;;;5.50;99.90;;;;;;5055965;28;20041;-83
2023/01/31 07:15:08;;;;;;;17.48;2.70;;;6.80;99.90;;;;;;5039914;28;20052;-84
2023/01/31 07:17:34;;;;;;;12.63;3.55;;;5.60;99.90;;;;;;5079736;28;20044;-83
2023/01/31 07:20:00;;;;;;;12.35;2.00;;;5.60;99.90;;;;;;5035063;28;20029;-84
2023/01/31 07:22:26;;;;;;;13.65;3.30;;;6.20;99.90;;;;;;5054570;28;20037;-83
2023/01/31 07:24:51;;;;;;;15.80;3.15;;;5.60;99.90;;;;;;5036035;28;20080;-83
2023/01/31 07:27:17;;;;;;;10.73;2.40;;;5.70;99.90;;;;;;5043684;28;20416;-83
2023/01/31 07:29:43;;;;;;;15.38;2.92;;;6.50;99.90;;;;;;5037566;28;20044;-83
2023/01/31 07:32:09;;;;;;;15.95;2.63;;;6.50;99.90;;;;;;5071072;28;20549;-83
2023/01/31 07:34:35;;;;;;;12.82;2.65;;;5.70;99.90;;;;;;5070831;28;20040;-83
2023/01/31 07:37:01;;;;;;;15.82;2.95;;;5.80;99.90;;;;;;5054121;28;20189;-83
2023/01/31 07:39:28;;;;;;;16.48;3.67;;;5.80;99.90;;;;;;5037713;28;20036;-83
2023/01/31 07:41:54;;;;;;;16.60;3.35;;;5.80;99.90;;;;;;5054606;28;20032;-83
2023/01/31 07:44:19;;;;;;;10.13;2.55;;;5.80;99.90;;;;;;5054510;28;20086;-83
2023/01/31 07:46:45;;;;;;;13.65;3.63;;;6.10;99.90;;;;;;5054898;28;20071;-83
2023/01/31 07:49:11;;;;;;;13.82;3.13;;;5.90;99.90;;;;;;5053680;28;20044;-83
2023/01/31 07:51:41;;;;;;;16.92;3.40;;;5.80;99.90;;;;;;5053978;28;20032;-83
2023/01/31 07:54:10;;;;;;;13.18;2.60;;;6.60;99.90;;;;;;5070563;28;20036;-83
2023/01/31 07:56:36;;;;;;;16.60;2.50;;;5.90;99.90;;;;;;5070069;28;20079;-83
2023/01/31 07:59:01;;;;;;;17.80;2.70;;;5.90;99.90;;;;;;5070700;28;20480;-83
2023/01/31 08:04:13;;;;;;;12.52;2.67;;;6.60;99.90;;;;;;5059390;28;20067;-83
2023/01/31 08:06:41;;;;;;;10.20;1.95;;;6.00;99.90;;;;;;5057468;28;20046;-83
2023/01/31 08:09:06;;;;;;;19.23;2.70;;;6.00;99.90;;;;;;5041783;28;20532;-83
2023/01/31 08:11:32;;;;;;;10.90;2.05;;;6.00;99.90;;;;;;5041512;28;20073;-83
2023/01/31 08:13:58;;;;;;;10.80;2.03;;;6.00;99.90;;;;;;5041517;28;20043;-83
2023/01/31 08:16:24;;;;;;;11.43;2.53;;;6.00;99.90;;;;;;5057496;28;20133;-83
2023/01/31 08:18:51;;;;;;;11.57;2.15;;;6.10;99.90;;;;;;5041172;28;20032;-83
2023/01/31 08:21:17;;;;;;;12.60;3.20;;;6.10;99.90;;;;;;5062437;28;20123;-82
2023/01/31 08:23:43;;;;;;;13.90;2.67;;;6.10;99.90;;;;;;5057842;28;20051;-83
2023/01/31 08:26:17;;;;;;;14.35;2.45;;;6.20;99.90;;;;;;5041157;28;20123;-83
2023/01/31 08:28:44;;;;;;;10.77;1.75;;;6.10;99.90;;;;;;5043246;28;20120;-83
2023/01/31 08:31:19;;;;;;;9.82;2.28;;;6.20;99.90;;;;;;5057765;28;20103;-83
2023/01/31 08:33:45;;;;;;;9.45;2.35;;;6.70;99.90;;;;;;5074054;28;20033;-83
2023/01/31 08:36:15;;;;;;;13.60;1.95;;;6.20;99.90;;;;;;5057478;28;20036;-83
2023/01/31 08:38:43;;;;;;;11.55;2.00;;;6.20;99.90;;;;;;5043580;28;20043;-83
2023/01/31 08:41:10;;;;;;;12.10;2.00;;;6.20;99.90;;;;;;5057553;28;20033;-83
2023/01/31 08:43:39;;;;;;;10.52;2.67;;;6.40;99.90;;;;;;5021101;28;20041;-83
2023/01/31 08:46:05;;;;;;;13.05;2.10;;;6.20;99.90;;;;;;5055166;28;20036;-83
2023/01/31 08:48:35;;;;;;;7.78;1.95;;;6.80;99.90;;;;;;5058024;28;20594;-83
2023/01/31 08:51:07;;;;;;;12.82;2.58;;;6.20;99.90;;;;;;5057224;28;20124;-83
2023/01/31 08:53:33;;;;;;;14.18;2.38;;;6.30;99.90;;;;;;5074213;28;20040;-83
2023/01/31 08:55:59;;;;;;;;;;;6.20;99.90;;;;;;5040600;28;20048;-83
2023/01/31 08:58:25;;;;;;;12.70;2.28;;;6.50;99.90;;;;;;5056454;28;19921;-83
2023/01/31 09:00:51;;;;;;;12.63;2.00;;;7.00;99.90;;;;;;5057412;28;20132;-83
2023/01/31 09:03:16;;;;;;;17.90;2.80;;;5.70;99.90;;;;;;5057308;28;20055;-83
2023/01/31 09:05:43;;;;;;;12.60;2.40;;;6.40;99.90;;;;;;5057363;28;20040;-83
2023/01/31 09:08:08;;;;;;;15.07;2.63;;;6.40;99.90;;;;;;5041148;28;20036;-83
2023/01/31 09:10:34;;;;;;;14.00;2.03;;;6.40;99.90;;;;;;5057011;28;20040;-83
2023/01/31 09:13:03;;;;;;;12.90;2.55;;;6.40;99.90;;;;;;5024117;28;20374;-83
2023/01/31 09:15:28;;;;;;;11.30;2.17;;;6.50;99.90;;;;;;5056849;28;20503;-83
2023/01/31 09:17:54;;;;;;;8.30;2.30;;;6.50;99.90;;;;;;5056205;28;20029;-84
2023/01/31 09:20:20;;;;;;;8.38;1.75;;;6.40;99.90;;;;;;5023741;28;20370;-83
2023/01/31 09:22:45;;;;;;;16.90;2.55;;;6.50;99.90;;;;;;5036808;28;20037;-83
2023/01/31 09:25:11;;;;;;;14.55;2.35;;;6.50;99.90;;;;;;5038663;28;20041;-83
2023/01/31 09:27:38;;;;;;;8.10;2.05;;;6.50;99.90;;;;;;5072801;28;20041;-83
2023/01/31 09:30:05;;;;;;;10.48;2.22;;;6.60;99.90;;;;;;5055983;28;20036;-83
2023/01/31 09:32:31;;;;;;;12.98;2.08;;;6.60;99.90;;;;;;5056122;28;20059;-83
2023/01/31 09:34:57;;;;;;;9.57;2.28;;;7.00;99.90;;;;;;5056507;28;20048;-83
2023/01/31 09:37:23;;;;;;;14.85;2.00;;;6.60;99.90;;;;;;5039701;28;20036;-83
2023/01/31 09:39:49;;;;;;;12.85;2.53;;;6.80;99.90;;;;;;5019969;28;20426;-83
2023/01/31 09:42:22;;;;;;;15.60;2.90;;;6.70;99.90;;;;;;5026252;28;20032;-83
2023/01/31 09:45:03;;;;;;;13.00;2.00;;;6.80;99.90;;;;;;5053158;28;20033;-83
2023/01/31 09:47:37;;;;;;;15.00;2.45;;;6.70;99.90;;;;;;5067876;28;20039;-83
2023/01/31 09:50:14;;;;;;;14.73;2.08;;;6.70;99.90;;;;;;5055626;28;20037;-83
2023/01/31 09:52:40;;;;;;;14.52;2.72;;;6.70;99.90;;;;;;5055680;28;20078;-83
2023/01/31 09:55:12;;;;;;;14.18;2.40;;;6.70;99.90;;;;;;5039165;28;20447;-83
2023/01/31 09:57:50;;;;;;;14.05;2.45;;;6.70;99.90;;;;;;5056425;28;20049;-83
2023/01/31 10:00:38;;;;;;;16.73;2.90;;;6.80;99.90;;;;;;5055747;28;20036;-83
2023/01/31 10:03:17;;;;;;;14.18;2.45;;;6.80;99.90;;;;;;5067695;28;20098;-83
2023/01/31 10:06:11;;;;;;;8.95;1.77;;;6.80;99.90;;;;;;5055578;28;20500;-83
2023/01/31 10:08:55;;;;;;;14.77;2.60;;;6.90;99.90;;;;;;5030105;28;20507;-83
2023/01/31 10:11:46;;;;;;;21.40;2.88;;;6.90;99.90;;;;;;5052952;28;20036;-83
2023/01/31 10:14:18;;;;;;;12.77;2.47;;;6.80;99.90;;;;;;5069313;28;20037;-83
2023/01/31 10:16:56;;;;;;;18.67;2.28;;;7.30;99.90;;;;;;5056338;28;20040;-83
2023/01/31 10:19:30;;;;;;;17.27;2.38;;;6.90;99.90;;;;;;5055947;28;20502;-83
2023/01/31 10:22:01;;;;;;;11.40;2.55;;;6.90;99.90;;;;;;5055737;28;20041;-83
2023/01/31 10:24:32;;;;;;;14.05;3.20;;;6.90;99.90;;;;;;5055600;28;20029;-83
2023/01/31 10:27:24;;;;;;;17.52;2.53;;;6.90;99.90;;;;;;5055228;28;20052;-83
2023/01/31 10:29:57;;;;;;;19.58;2.90;;;6.90;99.90;;;;;;5064475;28;20085;-84
2023/01/31 10:32:43;;;;;;;11.43;2.58;;;6.80;99.90;;;;;;5032923;28;20040;-84
2023/01/31 10:35:20;;;;;;;12.73;2.00;;;5.80;99.90;;;;;;5055242;28;20044;-83
2023/01/31 10:37:50;;;;;;;14.73;2.50;;;6.80;99.90;;;;;;5049126;28;20062;-83
2023/01/31 10:40:19;;;;;;;13.57;2.47;;;6.80;99.90;;;;;;5054753;28;20086;-83
2023/01/31 10:42:51;;;;;;;14.48;2.40;;;6.80;99.90;;;;;;5054681;28;20036;-83
2023/01/31 10:45:20;;;;;;;14.07;2.33;;;6.80;99.90;;;;;;5071132;28;20050;-83
2023/01/31 10:48:08;;;;;;;16.25;2.40;;;6.80;99.90;;;;;;5054987;28;20055;-83
2023/01/31 10:51:08;;;;;;;16.10;2.55;;;6.80;99.90;;;;;;5039153;28;20416;-83
2023/01/31 10:53:48;;;;;;;14.85;3.58;;;6.80;99.90;;;;;;5054349;28;20043;-83
2023/01/31 10:56:30;;;;;;;16.05;2.45;;;6.80;99.90;;;;;;5071671;28;20078;-83
2023/01/31 10:58:58;;;;;;;11.75;2.33;;;6.80;99.90;;;;;;5054500;28;20044;-83
2023/01/31 11:01:24;;;;;;;18.02;2.70;;;6.90;99.90;;;;;;5038510;28;20032;-83
2023/01/31 11:03:52;;;;;;;13.50;2.75;;;6.90;99.90;;;;;;5037903;28;20094;-83
2023/01/31 11:06:20;;;;;;;14.70;2.40;;;6.80;99.90;;;;;;5054333;28;20402;-83
2023/01/31 11:08:55;;;;;;;13.85;2.60;;;6.90;99.90;;;;;;5054172;28;20123;-83
2023/01/31 11:11:23;;;;;;;10.75;2.45;;;6.90;99.90;;;;;;5070458;28;20119;-82
2023/01/31 11:14:06;;;;;;;11.68;2.53;;;6.80;99.90;;;;;;5070678;28;20044;-83
2023/01/31 11:16:39;;;;;;;18.92;2.45;;;6.90;99.90;;;;;;5053774;28;20397;-82
2023/01/31 11:19:29;;;;;;;17.13;2.80;;;6.90;99.90;;;;;;5037273;28;20066;-82
2023/01/31 11:21:55;;;;;;;8.65;2.22;;;6.90;99.90;;;;;;5049291;28;20035;-82
2023/01/31 11:24:27;;;;;;;15.05;2.50;;;6.90;99.90;;;;;;5053743;28;20040;-83
2023/01/31 11:27:06;;;;;;;12.20;2.28;;;7.00;99.90;;;;;;5053830;28;20036;-82
2023/01/31 11:29:38;;;;;;;16.90;3.08;;;7.00;99.90;;;;;;5054218;28;20038;-82
2023/01/31 11:32:18;;;;;;;13.73;2.55;;;7.00;99.90;;;;;;5054270;28;20036;-83
2023/01/31 11:35:05;;;;;;;14.70;2.33;;;7.10;99.90;;;;;;5070904;28;20119;-83
2023/01/31 11:37:33;;;;;;;19.00;2.78;;;7.00;99.90;;;;;;5049009;28;20098;-82
2023/01/31 11:40:01;;;;;;;14.15;2.53;;;6.90;99.90;;;;;;5055856;28;20040;-83
2023/01/31 11:42:27;;;;;;;29.13;3.13;;;6.90;99.90;;;;;;5074872;28;20040;-82
2023/01/31 11:45:02;;;;;;;18.02;3.00;;;7.00;99.90;;;;;;5058036;28;20032;-82
2023/01/31 11:47:37;;;;;;;16.75;3.22;;;7.10;99.90;;;;;;5058390;28;20032;-83
2023/01/31 11:50:03;;;;;;;17.75;3.53;;;7.10;99.90;;;;;;5057842;28;20055;-83
2023/01/31 11:52:32;;;;;;;18.58;2.88;;;7.10;99.90;;;;;;5058062;28;20120;-83
2023/01/31 11:55:08;;;;;;;15.52;2.92;;;7.20;99.90;;;;;;5057105;28;20041;-83
2023/01/31 11:57:39;;;;;;;15.93;2.58;;;7.20;99.90;;;;;;5057286;28;20041;-83
2023/01/31 12:00:26;;;;;;;15.15;2.83;;;7.30;99.90;;;;;;5057655;28;20043;-83
2023/01/31 12:03:06;;;;;;;8.88;2.63;;;7.30;99.90;;;;;;5074466;28;20508;-83
2023/01/31 12:05:42;;;;;;;19.80;2.58;;;7.40;99.90;;;;;;5057236;28;20067;-83
2023/01/31 12:08:26;;;;;;;17.60;2.72;;;7.50;99.90;;;;;;5074059;28;20063;-83
2023/01/31 12:10:52;;;;;;;16.73;2.92;;;7.50;99.90;;;;;;5061168;28;20075;-83
2023/01/31 12:13:21;;;;;;;11.45;2.83;;;7.50;99.90;;;;;;5041301;28;20068;-83
2023/01/31 12:15:54;;;;;;;14.30;3.15;;;7.60;99.90;;;;;;5057973;28;20041;-83
2023/01/31 12:18:53;;;;;;;11.50;2.35;;;7.70;99.90;;;;;;5056532;28;20510;-83
2023/01/31 12:21:39;;;;;;;13.23;2.53;;;7.80;99.90;;;;;;5072406;28;20048;-83
2023/01/31 12:24:10;;;;;;;13.05;2.78;;;7.90;99.90;;;;;;5057026;28;20039;-83
2023/01/31 12:27:10;;;;;;;16.83;2.67;;;7.90;99.90;;;;;;5057327;28;20040;-83
2023/01/31 12:29:54;;;;;;;15.45;2.63;;;8.00;99.90;;;;;;5072810;28;20127;-83
2023/01/31 12:32:38;;;;;;;19.40;2.85;;;8.10;99.90;;;;;;5073909;28;20127;-83
2023/01/31 12:35:29;;;;;;;10.98;2.75;;;8.00;99.90;;;;;;5056841;28;20032;-83
2023/01/31 12:38:24;;;;;;;18.10;2.40;;;8.10;99.90;;;;;;5056202;28;20468;-83
2023/01/31 12:41:05;;;;;;;19.83;2.35;;;8.20;99.90;;;;;;5092309;28;20403;-83
2023/01/31 12:43:37;;;;;;;13.95;2.67;;;8.30;99.90;;;;;;5056737;28;20493;-83
2023/01/31 12:46:18;;;;;;;9.70;2.33;;;8.20;99.90;;;;;;5073389;28;20095;-83
2023/01/31 12:49:05;;;;;;;9.85;1.92;;;8.30;99.90;;;;;;5057523;28;20033;-83
2023/01/31 12:52:01;;;;;;;12.48;2.42;;;8.30;99.90;;;;;;5072167;28;20036;-83
2023/01/31 12:54:29;;;;;;;12.18;1.95;;;8.20;99.90;;;;;;5038787;28;20040;-83
2023/01/31 12:57:03;;;;;;;9.23;2.30;;;8.20;99.90;;;;;;5056640;28;20045;-83
2023/01/31 12:59:50;;;;;;;12.25;2.88;;;8.30;99.90;;;;;;5073553;28;20115;-83
2023/01/31 13:02:37;;;;;;;11.27;1.98;;;8.30;99.90;;;;;;5052928;28;20039;-83
2023/01/31 13:05:27;;;;;;;14.70;2.33;;;8.20;99.90;;;;;;5053266;28;20064;-83
2023/01/31 13:08:21;;;;;;;6.78;1.73;;;8.30;99.90;;;;;;5073282;28;20508;-83
2023/01/31 13:11:05;;;;;;;12.55;2.00;;;8.30;99.90;;;;;;5059877;28;20045;-83
2023/01/31 13:14:12;;;;;;;11.45;2.03;;;8.30;99.90;;;;;;5052614;28;20389;-83
2023/01/31 13:16:42;;;;;;;12.43;2.47;;;8.30;99.90;;;;;;5053649;28;20098;-81